createdAt,value
2022-08-05T00:02:52.124Z,65.17
2022-08-05T00:07:59.985Z,65.50
2022-08-05T00:13:04.673Z,65.67
2022-08-05T00:18:07.880Z,65.84
2022-08-05T00:23:12.958Z,66.01
2022-08-05T00:28:21.153Z,66.14
2022-08-05T00:34:53.876Z,66.27
2022-08-05T00:38:56.781Z,66.28
2022-08-05T00:44:03.039Z,66.42
2022-08-05T00:49:06.450Z,66.38
2022-08-05T00:54:12.219Z,66.92
2022-08-05T00:59:15.328Z,67.01
2022-08-05T01:04:20.361Z,67.06
2022-08-05T01:09:33.212Z,67.42
2022-08-05T01:14:49.160Z,67.49
2022-08-05T01:20:01.366Z,67.74
2022-08-05T01:25:39.924Z,67.86
2022-08-05T01:30:53.935Z,68.25
2022-08-05T01:35:59.808Z,68.71
2022-08-05T01:41:05.061Z,68.77
2022-08-05T01:46:41.234Z,68.86
2022-08-05T01:51:35.953Z,69.23
2022-08-05T01:58:29.498Z,69.58
2022-08-05T02:02:06.899Z,69.94
2022-08-05T02:07:21.614Z,70.17
2022-08-05T02:12:51.037Z,70.49
2022-08-05T02:18:31.263Z,70.61
2022-08-05T02:23:22.959Z,70.75
2022-08-05T02:28:32.123Z,71.10
2022-08-05T02:33:42.197Z,71.31
2022-08-05T02:38:53.623Z,71.53
2022-08-05T02:44:02.276Z,72.16
2022-08-05T02:49:11.291Z,72.34
2022-08-05T02:54:36.483Z,72.61
2022-08-05T02:59:48.073Z,72.81
2022-08-05T03:04:55.903Z,73.29
2022-08-05T03:09:59.623Z,73.98
2022-08-05T03:15:04.062Z,74.02
2022-08-05T03:20:10.647Z,74.51
2022-08-05T03:25:33.847Z,74.51
2022-08-05T03:30:42.380Z,74.23
2022-08-05T03:35:46.076Z,74.38
2022-08-05T03:40:49.765Z,74.35
2022-08-05T03:45:57.755Z,74.51
2022-08-05T03:52:50.258Z,74.33
2022-08-05T03:56:37.209Z,74.29
2022-08-05T04:01:46.609Z,74.04
2022-08-05T04:06:51.858Z,73.94
2022-08-05T04:11:57.143Z,71.49
2022-08-05T04:17:02.939Z,67.07
2022-08-05T04:22:11.704Z,62.55
2022-08-05T04:27:15.609Z,58.01
2022-08-05T04:32:31.282Z,55.19
2022-08-05T04:38:01.004Z,52.46
2022-08-05T04:42:59.994Z,48.76
2022-08-05T04:48:16.586Z,45.85
2022-08-05T04:53:33.618Z,44.32
2022-08-05T04:58:38.650Z,43.02
2022-08-05T05:03:42.816Z,41.86
2022-08-05T05:08:46.093Z,41.12
2022-08-05T05:13:55.394Z,40.96
2022-08-05T05:19:18.608Z,39.77
2022-08-05T05:24:22.135Z,37.83
2022-08-05T05:30:03.917Z,36.69
2022-08-05T05:34:54.461Z,35.81
2022-08-05T05:39:58.085Z,35.81
2022-08-05T05:45:01.495Z,35.00
2022-08-05T05:50:08.777Z,34.22
2022-08-05T05:55:19.584Z,33.35
2022-08-05T06:00:27.726Z,32.76
2022-08-05T06:05:34.911Z,32.27
2022-08-05T06:10:44.243Z,32.20
2022-08-05T06:16:29.922Z,31.01
2022-08-05T06:21:19.153Z,29.74
2022-08-05T06:26:24.944Z,29.13
2022-08-05T06:31:30.498Z,29.39
2022-08-05T06:36:53.421Z,28.80
2022-08-05T06:42:01.574Z,28.80
2022-08-05T06:47:10.359Z,28.31
2022-08-05T06:52:37.276Z,27.95
2022-08-05T06:58:02.677Z,27.31
2022-08-05T07:03:04.889Z,27.12
2022-08-05T07:08:12.915Z,26.15
2022-08-05T07:13:59.558Z,25.34
2022-08-05T07:18:58.678Z,25.28
2022-08-05T07:24:02.785Z,23.49
2022-08-05T07:29:06.500Z,23.63
2022-08-05T07:34:13.887Z,23.45
2022-08-05T07:40:03.706Z,23.41
2022-08-05T07:44:40.396Z,22.95
2022-08-05T07:49:54.647Z,23.02
2022-08-05T07:54:57.973Z,23.02
2022-08-05T08:00:01.386Z,22.28
2022-08-05T08:05:05.706Z,21.45
2022-08-05T08:10:09.849Z,21.23
2022-08-05T08:15:15.093Z,20.94
2022-08-05T08:20:43.889Z,20.69
2022-08-05T08:26:00.260Z,19.80
2022-08-05T08:31:08.969Z,19.14
2022-08-05T08:36:37.558Z,19.51
2022-08-05T08:41:51.091Z,19.65
2022-08-05T08:47:02.832Z,19.65
2022-08-05T08:52:14.392Z,19.12
2022-08-05T08:57:17.774Z,18.93
2022-08-05T09:02:21.271Z,19.61
2022-08-05T09:07:40.003Z,19.26
2022-08-05T09:12:53.586Z,19.30
2022-08-05T09:17:56.794Z,20.07
2022-08-05T09:23:27.187Z,19.92
2022-08-05T09:28:33.735Z,19.04
2022-08-05T09:33:48.813Z,18.75
2022-08-05T09:39:18.285Z,19.05
2022-08-05T09:44:42.235Z,19.77
2022-08-05T09:50:01.094Z,19.95
2022-08-05T09:55:57.571Z,21.87
2022-08-05T10:00:33.248Z,24.95
2022-08-05T10:05:37.154Z,26.76
2022-08-05T10:10:48.277Z,28.14
2022-08-05T10:15:53.814Z,29.15
2022-08-05T10:20:59.475Z,30.35
2022-08-05T10:26:14.261Z,31.03
2022-08-05T10:32:52.274Z,31.73
2022-08-05T10:36:42.078Z,33.23
2022-08-05T10:41:48.251Z,33.94
2022-08-05T10:46:56.584Z,33.38
2022-08-05T10:52:02.633Z,32.90
2022-08-05T10:57:06.581Z,33.13
2022-08-05T11:02:34.915Z,32.87
2022-08-05T11:08:03.202Z,32.27
2022-08-05T11:13:32.395Z,32.53
2022-08-05T11:18:46.999Z,32.75
2022-08-05T11:24:04.240Z,32.86
2022-08-05T11:29:37.408Z,33.11
2022-08-05T11:34:50.944Z,32.94
2022-08-05T11:40:03.148Z,32.76
2022-08-05T11:45:14.364Z,32.47
2022-08-05T11:50:37.769Z,31.95
2022-08-05T11:56:01.354Z,32.85
2022-08-05T12:01:12.750Z,32.80
2022-08-05T12:06:23.543Z,32.70
2022-08-05T12:11:28.306Z,32.28
2022-08-05T12:16:46.377Z,32.28
2022-08-05T12:21:51.493Z,32.35
2022-08-05T12:27:09.815Z,31.46
2022-08-05T12:32:25.047Z,32.32
2022-08-05T12:37:29.938Z,33.06
2022-08-05T12:42:33.510Z,33.32
2022-08-05T12:47:37.437Z,33.14
2022-08-05T12:52:42.408Z,32.69
2022-08-05T12:58:50.870Z,33.32
2022-08-05T13:03:12.217Z,34.19
2022-08-05T13:08:20.170Z,34.04
2022-08-05T13:14:05.323Z,33.34
2022-08-05T13:18:58.384Z,34.03
2022-08-05T13:24:01.906Z,33.63
2022-08-05T13:29:07.930Z,33.49
2022-08-05T13:34:24.736Z,34.22
2022-08-05T13:40:15.130Z,34.44
2022-08-05T13:44:55.436Z,33.92
2022-08-05T13:49:59.296Z,34.03
2022-08-05T13:55:02.465Z,34.65
2022-08-05T14:00:13.764Z,34.91
2022-08-05T14:05:19.389Z,34.93
2022-08-05T14:10:37.445Z,35.41
2022-08-05T14:16:06.971Z,36.01
2022-08-05T14:22:10.446Z,36.38
2022-08-05T14:26:35.727Z,37.45
2022-08-05T14:32:03.832Z,37.68
2022-08-05T14:37:13.379Z,37.12
2022-08-05T14:42:20.754Z,36.96
2022-08-05T14:48:03.045Z,37.08
2022-08-05T14:52:59.119Z,37.10
2022-08-05T14:58:02.692Z,37.43
2022-08-05T15:03:15.527Z,37.64
2022-08-05T15:08:58.008Z,37.88
2022-08-05T15:13:46.085Z,37.76
2022-08-05T15:18:53.621Z,37.43
2022-08-05T15:23:56.924Z,37.50
2022-08-05T15:29:02.408Z,37.35
2022-08-05T15:34:32.514Z,37.66
2022-08-05T15:41:02.519Z,38.10
2022-08-05T15:44:55.029Z,37.75
2022-08-05T15:49:59.460Z,37.49
2022-08-05T15:55:05.166Z,37.44
2022-08-05T16:00:11.197Z,37.88
2022-08-05T16:05:15.030Z,38.56
2022-08-05T16:10:23.280Z,38.92
2022-08-05T16:15:32.255Z,39.31
2022-08-05T16:20:35.813Z,39.40
2022-08-05T16:25:40.557Z,39.21
2022-08-05T16:30:44.795Z,39.83
2022-08-05T16:35:52.798Z,39.92
2022-08-05T16:41:00.362Z,40.62
2022-08-05T16:46:12.908Z,40.96
2022-08-05T16:51:30.996Z,41.44
2022-08-05T16:56:46.193Z,41.91
2022-08-05T17:01:56.176Z,42.27
2022-08-05T17:07:03.564Z,42.52
2022-08-05T17:12:15.172Z,42.89
2022-08-05T17:17:19.849Z,43.18
2022-08-05T17:22:26.021Z,43.67
2022-08-05T17:27:33.796Z,44.16
2022-08-05T17:32:38.309Z,44.55
2022-08-05T17:37:45.770Z,44.80
2022-08-05T17:42:53.484Z,45.19
2022-08-05T17:47:56.987Z,45.42
2022-08-05T17:53:04.639Z,45.84
2022-08-05T17:58:11.092Z,46.21
2022-08-05T18:03:33.407Z,46.78
2022-08-05T18:08:44.097Z,47.40
2022-08-05T18:13:48.560Z,47.84
2022-08-05T18:18:51.771Z,48.55
2022-08-05T18:23:55.285Z,49.20
2022-08-05T18:28:58.704Z,49.87
2022-08-05T18:34:02.525Z,50.57
2022-08-05T18:39:06.498Z,51.13
2022-08-05T18:44:13.137Z,51.89
2022-08-05T18:49:57.142Z,52.27
2022-08-05T18:54:58.414Z,53.04
2022-08-05T19:00:11.701Z,53.89
2022-08-05T19:06:11.984Z,54.68
2022-08-05T19:10:47.430Z,55.90
2022-08-05T19:15:58.677Z,57.50
2022-08-05T19:21:06.755Z,58.89
2022-08-05T19:26:11.344Z,59.90
2022-08-05T19:31:19.353Z,60.49
2022-08-05T19:36:25.647Z,60.78
2022-08-05T19:41:58.310Z,60.99
2022-08-05T19:46:53.146Z,61.48
2022-08-05T19:52:09.208Z,61.65
2022-08-05T19:57:47.311Z,62.01
2022-08-05T20:02:46.459Z,62.99
2022-08-05T20:07:49.962Z,63.70
2022-08-05T20:12:53.492Z,64.16
2022-08-05T20:17:57.547Z,64.73
2022-08-05T20:23:04.394Z,65.01
2022-08-05T20:28:13.543Z,65.44
2022-08-05T20:33:17.671Z,65.54
2022-08-05T20:38:27.310Z,65.78
2022-08-05T20:43:57.910Z,66.32
2022-08-05T20:48:55.358Z,67.24
2022-08-05T20:54:01.295Z,67.62
2022-08-05T20:59:14.018Z,67.71
2022-08-05T21:04:22.802Z,67.97
2022-08-05T21:09:30.716Z,67.98
2022-08-05T21:14:37.207Z,68.18
2022-08-05T21:19:46.631Z,68.75
2022-08-05T21:24:52.430Z,69.35
2022-08-05T21:29:56.518Z,69.77
2022-08-05T21:35:08.446Z,70.31
2022-08-05T21:40:23.305Z,70.51
2022-08-05T21:45:56.169Z,70.69
2022-08-05T21:50:53.165Z,70.68
2022-08-05T21:56:16.398Z,70.28
2022-08-05T22:01:23.898Z,70.12
2022-08-05T22:06:35.621Z,70.67
2022-08-05T22:11:43.632Z,70.80
2022-08-05T22:16:51.183Z,70.97
2022-08-05T22:21:55.670Z,72.14
2022-08-05T22:27:17.940Z,72.35
2022-08-05T22:32:21.035Z,73.02
2022-08-05T22:37:26.289Z,73.62
2022-08-05T22:42:53.089Z,74.96
2022-08-05T22:48:01.277Z,75.72
2022-08-05T22:53:04.690Z,77.49
2022-08-05T22:58:14.678Z,78.24
2022-08-05T23:03:18.728Z,77.97
2022-08-05T23:08:41.764Z,79.30
2022-08-05T23:13:46.096Z,80.24
2022-08-05T23:18:54.833Z,81.07
2022-08-05T23:23:58.865Z,82.18
2022-08-05T23:29:04.524Z,82.52
2022-08-05T23:34:08.347Z,83.02
2022-08-05T23:39:16.547Z,83.64
2022-08-05T23:44:28.028Z,84.21
2022-08-05T23:49:36.142Z,84.83
2022-08-05T23:54:39.512Z,85.59
